sensor_id;sensor_type;location;lat;lon;timestamp;pressure;altitude;pressure_sealevel;temperature;humidity
43480;BME280;29067;35.492;-97.520;2023-02-16T00:02:12;96273.91;;;13.56;32.73
43480;BME280;29067;35.492;-97.520;2023-02-16T00:04:39;96272.74;;;12.41;34.02
43480;BME280;29067;35.492;-97.520;2023-02-16T00:07:07;96278.80;;;11.24;34.56
43480;BME280;29067;35.492;-97.520;2023-02-16T00:09:35;96274.09;;;12.06;34.86
43480;BME280;29067;35.492;-97.520;2023-02-16T00:12:07;96292.14;;;10.46;35.40
43480;BME280;29067;35.492;-97.520;2023-02-16T00:14:43;96297.60;;;12.25;35.15
43480;BME280;29067;35.492;-97.520;2023-02-16T00:17:10;96296.66;;;12.58;34.48
43480;BME280;29067;35.492;-97.520;2023-02-16T00:19:40;96311.39;;;12.28;34.62
43480;BME280;29067;35.492;-97.520;2023-02-16T00:22:08;96310.89;;;11.24;35.46
43480;BME280;29067;35.492;-97.520;2023-02-16T00:24:36;96307.97;;;11.04;35.98
43480;BME280;29067;35.492;-97.520;2023-02-16T00:27:11;96321.84;;;12.23;35.16
43480;BME280;29067;35.492;-97.520;2023-02-16T00:29:39;96340.80;;;11.46;35.45
43480;BME280;29067;35.492;-97.520;2023-02-16T00:32:11;96359.11;;;10.44;35.66
43480;BME280;29067;35.492;-97.520;2023-02-16T00:34:40;96357.65;;;11.24;35.80
43480;BME280;29067;35.492;-97.520;2023-02-16T00:37:10;96351.85;;;10.86;36.30
43480;BME280;29067;35.492;-97.520;2023-02-16T00:39:41;96386.56;;;11.11;36.45
43480;BME280;29067;35.492;-97.520;2023-02-16T00:42:16;96434.13;;;10.78;36.67
43480;BME280;29067;35.492;-97.520;2023-02-16T00:44:47;96479.34;;;9.30;38.02
43480;BME280;29067;35.492;-97.520;2023-02-16T00:47:19;96457.77;;;9.31;38.77
43480;BME280;29067;35.492;-97.520;2023-02-16T00:49:49;96365.53;;;7.93;43.81
43480;BME280;29067;35.492;-97.520;2023-02-16T00:52:30;96415.01;;;7.93;48.54
43480;BME280;29067;35.492;-97.520;2023-02-16T00:55:03;96436.06;;;9.83;49.06
43480;BME280;29067;35.492;-97.520;2023-02-16T00:57:34;96426.78;;;8.77;49.59
43480;BME280;29067;35.492;-97.520;2023-02-16T01:00:10;96411.07;;;9.12;47.17
43480;BME280;29067;35.492;-97.520;2023-02-16T01:02:41;96426.40;;;7.77;49.49
43480;BME280;29067;35.492;-97.520;2023-02-16T01:05:09;96441.76;;;9.03;48.71
43480;BME280;29067;35.492;-97.520;2023-02-16T01:07:38;96451.74;;;10.20;46.25
43480;BME280;29067;35.492;-97.520;2023-02-16T01:10:07;96445.76;;;9.68;45.89
43480;BME280;29067;35.492;-97.520;2023-02-16T01:12:35;96443.43;;;9.27;46.54
43480;BME280;29067;35.492;-97.520;2023-02-16T01:15:04;96448.68;;;10.20;46.63
43480;BME280;29067;35.492;-97.520;2023-02-16T01:17:34;96455.49;;;10.10;46.02
43480;BME280;29067;35.492;-97.520;2023-02-16T01:20:02;96449.55;;;8.58;47.50
43480;BME280;29067;35.492;-97.520;2023-02-16T01:22:30;96457.19;;;9.46;45.93
43480;BME280;29067;35.492;-97.520;2023-02-16T01:24:58;96483.66;;;8.78;47.08
43480;BME280;29067;35.492;-97.520;2023-02-16T01:27:26;96489.46;;;9.19;45.45
43480;BME280;29067;35.492;-97.520;2023-02-16T01:29:54;96494.75;;;8.70;45.70
43480;BME280;29067;35.492;-97.520;2023-02-16T01:32:22;96496.68;;;8.96;45.34
43480;BME280;29067;35.492;-97.520;2023-02-16T01:34:50;96484.32;;;9.61;44.18
43480;BME280;29067;35.492;-97.520;2023-02-16T01:37:20;96479.29;;;7.96;46.31
43480;BME280;29067;35.492;-97.520;2023-02-16T01:39:48;96499.20;;;8.93;46.02
43480;BME280;29067;35.492;-97.520;2023-02-16T01:42:29;96507.78;;;7.71;47.15
43480;BME280;29067;35.492;-97.520;2023-02-16T01:45:08;96493.24;;;8.14;47.62
43480;BME280;29067;35.492;-97.520;2023-02-16T01:47:48;96477.97;;;7.70;47.58
43480;BME280;29067;35.492;-97.520;2023-02-16T01:50:36;96444.31;;;7.55;47.60
43480;BME280;29067;35.492;-97.520;2023-02-16T01:53:14;96430.09;;;7.77;46.94
43480;BME280;29067;35.492;-97.520;2023-02-16T01:55:48;96458.67;;;7.84;47.65
43480;BME280;29067;35.492;-97.520;2023-02-16T01:58:32;96482.43;;;7.68;47.97
43480;BME280;29067;35.492;-97.520;2023-02-16T02:01:43;96488.50;;;7.13;47.93
43480;BME280;29067;35.492;-97.520;2023-02-16T02:04:21;96498.49;;;6.47;49.38
43480;BME280;29067;35.492;-97.520;2023-02-16T02:06:50;96486.35;;;6.73;49.29
43480;BME280;29067;35.492;-97.520;2023-02-16T02:09:22;96472.50;;;6.17;49.58
43480;BME280;29067;35.492;-97.520;2023-02-16T02:11:58;96467.10;;;3.60;52.46
43480;BME280;29067;35.492;-97.520;2023-02-16T02:14:30;96461.53;;;5.20;50.90
43480;BME280;29067;35.492;-97.520;2023-02-16T02:17:02;96467.15;;;3.04;53.38
43480;BME280;29067;35.492;-97.520;2023-02-16T02:19:40;96481.39;;;3.59;53.61
43480;BME280;29067;35.492;-97.520;2023-02-16T02:22:36;96499.92;;;3.73;53.32
43480;BME280;29067;35.492;-97.520;2023-02-16T02:25:28;96525.06;;;2.57;55.79
43480;BME280;29067;35.492;-97.520;2023-02-16T02:28:10;96534.31;;;2.48;56.31
43480;BME280;29067;35.492;-97.520;2023-02-16T02:30:47;96560.58;;;1.63;58.02
43480;BME280;29067;35.492;-97.520;2023-02-16T02:33:33;96564.66;;;2.71;56.64
43480;BME280;29067;35.492;-97.520;2023-02-16T02:36:13;96586.87;;;2.94;55.35
43480;BME280;29067;35.492;-97.520;2023-02-16T02:38:54;96601.89;;;0.60;59.18
43480;BME280;29067;35.492;-97.520;2023-02-16T02:41:29;96605.92;;;1.34;58.44
43480;BME280;29067;35.492;-97.520;2023-02-16T02:44:01;96595.97;;;2.02;57.70
43480;BME280;29067;35.492;-97.520;2023-02-16T02:46:33;96601.46;;;0.25;60.71
43480;BME280;29067;35.492;-97.520;2023-02-16T02:49:01;96603.34;;;-0.02;62.45
43480;BME280;29067;35.492;-97.520;2023-02-16T02:51:30;96613.86;;;1.62;58.98
43480;BME280;29067;35.492;-97.520;2023-02-16T02:54:00;96645.03;;;1.57;57.99
43480;BME280;29067;35.492;-97.520;2023-02-16T02:56:29;96664.24;;;0.09;59.88
43480;BME280;29067;35.492;-97.520;2023-02-16T02:59:03;96689.95;;;-0.97;61.77
43480;BME280;29067;35.492;-97.520;2023-02-16T03:01:32;96697.95;;;-1.48;65.33
43480;BME280;29067;35.492;-97.520;2023-02-16T03:04:03;96704.44;;;-0.58;64.17
43480;BME280;29067;35.492;-97.520;2023-02-16T03:06:37;96698.10;;;-0.83;62.65
43480;BME280;29067;35.492;-97.520;2023-02-16T03:09:09;96699.69;;;-0.03;61.44
43480;BME280;29067;35.492;-97.520;2023-02-16T03:11:38;96709.70;;;-0.00;60.97
43480;BME280;29067;35.492;-97.520;2023-02-16T03:14:11;96725.48;;;-0.15;60.95
43480;BME280;29067;35.492;-97.520;2023-02-16T03:16:44;96752.33;;;-1.17;61.61
43480;BME280;29067;35.492;-97.520;2023-02-16T03:19:16;96747.20;;;-0.99;62.87
43480;BME280;29067;35.492;-97.520;2023-02-16T03:21:45;96761.72;;;-1.66;63.70
43480;BME280;29067;35.492;-97.520;2023-02-16T03:24:19;96784.01;;;-1.53;63.51
43480;BME280;29067;35.492;-97.520;2023-02-16T03:26:51;96795.63;;;-0.76;63.36
43480;BME280;29067;35.492;-97.520;2023-02-16T03:29:20;96801.80;;;-1.28;62.70
43480;BME280;29067;35.492;-97.520;2023-02-16T03:31:50;96777.61;;;-0.52;60.95
43480;BME280;29067;35.492;-97.520;2023-02-16T03:34:21;96792.63;;;-0.25;60.39
43480;BME280;29067;35.492;-97.520;2023-02-16T03:36:53;96794.30;;;-0.55;61.06
43480;BME280;29067;35.492;-97.520;2023-02-16T03:39:22;96789.25;;;-0.83;61.34
43480;BME280;29067;35.492;-97.520;2023-02-16T03:41:51;96796.32;;;-0.60;61.62
43480;BME280;29067;35.492;-97.520;2023-02-16T03:44:21;96788.34;;;-0.67;60.71
43480;BME280;29067;35.492;-97.520;2023-02-16T03:46:50;96802.44;;;-0.08;60.63
43480;BME280;29067;35.492;-97.520;2023-02-16T03:49:18;96816.32;;;-0.79;61.13
43480;BME280;29067;35.492;-97.520;2023-02-16T03:51:47;96803.35;;;-0.55;62.07
43480;BME280;29067;35.492;-97.520;2023-02-16T03:54:15;96790.37;;;-0.79;62.09
43480;BME280;29067;35.492;-97.520;2023-02-16T03:56:43;96806.24;;;-1.29;63.67
43480;BME280;29067;35.492;-97.520;2023-02-16T03:59:11;96835.20;;;-1.34;63.03
43480;BME280;29067;35.492;-97.520;2023-02-16T04:01:39;96842.16;;;-2.31;64.78
43480;BME280;29067;35.492;-97.520;2023-02-16T04:04:07;96834.83;;;-2.54;68.34
43480;BME280;29067;35.492;-97.520;2023-02-16T04:06:36;96819.89;;;-1.43;65.01
43480;BME280;29067;35.492;-97.520;2023-02-16T04:09:04;96836.58;;;-1.75;65.16
43480;BME280;29067;35.492;-97.520;2023-02-16T04:11:32;96854.10;;;-1.55;64.36
43480;BME280;29067;35.492;-97.520;2023-02-16T04:14:01;96838.08;;;-0.80;63.27
43480;BME280;29067;35.492;-97.520;2023-02-16T04:16:29;96837.27;;;-1.11;63.48
43480;BME280;29067;35.492;-97.520;2023-02-16T04:18:57;96838.01;;;-1.60;63.63
43480;BME280;29067;35.492;-97.520;2023-02-16T04:21:25;96848.07;;;0.03;61.10
43480;BME280;29067;35.492;-97.520;2023-02-16T04:23:53;96853.61;;;-1.44;63.23
43480;BME280;29067;35.492;-97.520;2023-02-16T04:26:21;96876.95;;;-1.92;64.38
43480;BME280;29067;35.492;-97.520;2023-02-16T04:28:49;96887.61;;;-1.89;64.56
43480;BME280;29067;35.492;-97.520;2023-02-16T04:31:17;96898.38;;;-2.03;64.39
43480;BME280;29067;35.492;-97.520;2023-02-16T04:33:44;96899.19;;;-1.51;64.01
43480;BME280;29067;35.492;-97.520;2023-02-16T04:36:13;96899.33;;;-2.36;66.15
43480;BME280;29067;35.492;-97.520;2023-02-16T04:38:41;96902.06;;;-2.34;66.02
43480;BME280;29067;35.492;-97.520;2023-02-16T04:41:09;96915.07;;;-3.52;69.66
43480;BME280;29067;35.492;-97.520;2023-02-16T04:43:42;96922.01;;;-3.28;70.63
43480;BME280;29067;35.492;-97.520;2023-02-16T04:46:10;96931.37;;;-3.35;71.40
43480;BME280;29067;35.492;-97.520;2023-02-16T04:48:50;96947.44;;;-3.00;70.44
43480;BME280;29067;35.492;-97.520;2023-02-16T04:51:24;96949.88;;;-2.42;69.58
43480;BME280;29067;35.492;-97.520;2023-02-16T04:53:52;96956.23;;;-2.44;69.55
43480;BME280;29067;35.492;-97.520;2023-02-16T04:56:20;96956.31;;;-1.92;67.94
43480;BME280;29067;35.492;-97.520;2023-02-16T04:58:54;96956.41;;;-2.60;68.45
43480;BME280;29067;35.492;-97.520;2023-02-16T05:01:28;96963.48;;;-3.57;73.69
43480;BME280;29067;35.492;-97.520;2023-02-16T05:03:57;96959.07;;;-2.67;71.66
43480;BME280;29067;35.492;-97.520;2023-02-16T05:06:25;96975.73;;;-2.78;71.94
43480;BME280;29067;35.492;-97.520;2023-02-16T05:09:10;96981.76;;;-3.33;72.03
43480;BME280;29067;35.492;-97.520;2023-02-16T05:11:37;96977.18;;;-2.46;70.19
43480;BME280;29067;35.492;-97.520;2023-02-16T05:14:06;96974.94;;;-2.16;67.93
43480;BME280;29067;35.492;-97.520;2023-02-16T05:16:37;96985.44;;;-2.91;68.48
43480;BME280;29067;35.492;-97.520;2023-02-16T05:19:05;96997.79;;;-2.44;68.64
43480;BME280;29067;35.492;-97.520;2023-02-16T05:21:33;97006.58;;;-2.96;67.89
43480;BME280;29067;35.492;-97.520;2023-02-16T05:24:03;97023.68;;;-2.29;68.23
43480;BME280;29067;35.492;-97.520;2023-02-16T05:26:33;97022.10;;;-2.16;68.83
43480;BME280;29067;35.492;-97.520;2023-02-16T05:29:02;97012.93;;;-2.18;66.66
43480;BME280;29067;35.492;-97.520;2023-02-16T05:31:31;96995.51;;;-2.36;66.62
43480;BME280;29067;35.492;-97.520;2023-02-16T05:33:59;96979.31;;;-2.30;66.58
43480;BME280;29067;35.492;-97.520;2023-02-16T05:36:27;96966.10;;;-1.18;63.85
43480;BME280;29067;35.492;-97.520;2023-02-16T05:38:55;96954.18;;;-1.53;63.79
43480;BME280;29067;35.492;-97.520;2023-02-16T05:41:23;96974.93;;;-1.89;63.41
43480;BME280;29067;35.492;-97.520;2023-02-16T05:43:53;96987.82;;;-2.76;64.87
43480;BME280;29067;35.492;-97.520;2023-02-16T05:46:23;96982.20;;;-1.93;64.97
43480;BME280;29067;35.492;-97.520;2023-02-16T05:48:51;96980.73;;;-0.40;61.28
43480;BME280;29067;35.492;-97.520;2023-02-16T05:51:20;96977.21;;;-2.00;63.22
43480;BME280;29067;35.492;-97.520;2023-02-16T05:53:48;96993.78;;;-2.96;65.98
43480;BME280;29067;35.492;-97.520;2023-02-16T05:56:18;96981.47;;;-1.01;64.05
43480;BME280;29067;35.492;-97.520;2023-02-16T05:58:53;96968.94;;;-2.27;63.79
43480;BME280;29067;35.492;-97.520;2023-02-16T06:01:21;96969.48;;;-2.12;63.51
43480;BME280;29067;35.492;-97.520;2023-02-16T06:03:49;96973.71;;;-1.44;61.55
43480;BME280;29067;35.492;-97.520;2023-02-16T06:06:17;96970.80;;;-2.36;63.16
43480;BME280;29067;35.492;-97.520;2023-02-16T06:08:46;96955.40;;;-1.83;62.92
43480;BME280;29067;35.492;-97.520;2023-02-16T06:11:15;96951.62;;;-1.97;63.01
43480;BME280;29067;35.492;-97.520;2023-02-16T06:13:48;96975.28;;;-2.42;66.29
43480;BME280;29067;35.492;-97.520;2023-02-16T06:16:16;96978.16;;;-2.49;66.32
43480;BME280;29067;35.492;-97.520;2023-02-16T06:18:44;96984.82;;;-1.48;64.05
43480;BME280;29067;35.492;-97.520;2023-02-16T06:21:13;97003.24;;;-3.42;66.01
43480;BME280;29067;35.492;-97.520;2023-02-16T06:23:40;97012.00;;;-2.67;66.50
43480;BME280;29067;35.492;-97.520;2023-02-16T06:26:09;97029.75;;;-3.03;67.79
43480;BME280;29067;35.492;-97.520;2023-02-16T06:28:37;97036.26;;;-2.53;66.63
43480;BME280;29067;35.492;-97.520;2023-02-16T06:31:05;97034.82;;;-3.73;68.26
43480;BME280;29067;35.492;-97.520;2023-02-16T06:33:33;97035.59;;;-2.90;69.38
43480;BME280;29067;35.492;-97.520;2023-02-16T06:36:01;97038.76;;;-2.69;69.78
43480;BME280;29067;35.492;-97.520;2023-02-16T06:38:30;97047.57;;;-3.11;70.39
43480;BME280;29067;35.492;-97.520;2023-02-16T06:40:58;97062.77;;;-2.64;70.68
43480;BME280;29067;35.492;-97.520;2023-02-16T06:43:26;97067.72;;;-2.86;67.88
43480;BME280;29067;35.492;-97.520;2023-02-16T06:45:55;97069.40;;;-3.25;68.85
43480;BME280;29067;35.492;-97.520;2023-02-16T06:48:24;97064.09;;;-3.01;68.57
43480;BME280;29067;35.492;-97.520;2023-02-16T06:50:53;97081.67;;;-3.64;70.13
43480;BME280;29067;35.492;-97.520;2023-02-16T06:53:21;97081.04;;;-4.21;74.74
43480;BME280;29067;35.492;-97.520;2023-02-16T06:55:50;97072.07;;;-3.12;70.67
43480;BME280;29067;35.492;-97.520;2023-02-16T06:58:18;97076.57;;;-3.83;71.96
43480;BME280;29067;35.492;-97.520;2023-02-16T07:00:46;97094.29;;;-3.72;71.65
43480;BME280;29067;35.492;-97.520;2023-02-16T07:03:14;97096.26;;;-3.87;71.29
43480;BME280;29067;35.492;-97.520;2023-02-16T07:05:49;97091.81;;;-3.59;72.24
43480;BME280;29067;35.492;-97.520;2023-02-16T07:08:17;97111.21;;;-3.60;72.04
43480;BME280;29067;35.492;-97.520;2023-02-16T07:10:46;97131.76;;;-3.59;73.61
43480;BME280;29067;35.492;-97.520;2023-02-16T07:13:14;97128.24;;;-3.38;72.70
43480;BME280;29067;35.492;-97.520;2023-02-16T07:15:42;97125.74;;;-2.84;69.90
43480;BME280;29067;35.492;-97.520;2023-02-16T07:18:11;97141.67;;;-3.23;72.57
43480;BME280;29067;35.492;-97.520;2023-02-16T07:20:39;97151.14;;;-4.09;76.76
43480;BME280;29067;35.492;-97.520;2023-02-16T07:23:07;97150.12;;;-2.73;73.66
43480;BME280;29067;35.492;-97.520;2023-02-16T07:25:41;97176.33;;;-3.26;73.81
43480;BME280;29067;35.492;-97.520;2023-02-16T07:28:09;97174.83;;;-2.59;71.80
43480;BME280;29067;35.492;-97.520;2023-02-16T07:30:43;97169.46;;;-2.86;71.83
43480;BME280;29067;35.492;-97.520;2023-02-16T07:33:11;97178.01;;;-3.68;76.14
43480;BME280;29067;35.492;-97.520;2023-02-16T07:35:41;97178.10;;;-3.28;73.78
43480;BME280;29067;35.492;-97.520;2023-02-16T07:38:10;97185.16;;;-4.33;77.95
43480;BME280;29067;35.492;-97.520;2023-02-16T07:40:38;97186.79;;;-3.87;75.69
43480;BME280;29067;35.492;-97.520;2023-02-16T07:43:07;97185.91;;;-5.79;85.52
43480;BME280;29067;35.492;-97.520;2023-02-16T07:45:34;97196.21;;;-5.94;90.24
43480;BME280;29067;35.492;-97.520;2023-02-16T07:48:04;97198.89;;;-4.26;81.87
43480;BME280;29067;35.492;-97.520;2023-02-16T07:50:37;97204.63;;;-5.89;88.06
43480;BME280;29067;35.492;-97.520;2023-02-16T07:53:05;97202.78;;;-4.90;87.77
43480;BME280;29067;35.492;-97.520;2023-02-16T07:55:37;97203.83;;;-4.73;87.10
43480;BME280;29067;35.492;-97.520;2023-02-16T07:58:05;97199.00;;;-4.57;81.69
43480;BME280;29067;35.492;-97.520;2023-02-16T08:00:34;97200.58;;;-4.98;84.07
43480;BME280;29067;35.492;-97.520;2023-02-16T08:03:02;97198.16;;;-4.40;82.11
43480;BME280;29067;35.492;-97.520;2023-02-16T08:05:30;97197.67;;;-4.82;84.39
43480;BME280;29067;35.492;-97.520;2023-02-16T08:07:58;97192.89;;;-4.30;83.89
43480;BME280;29067;35.492;-97.520;2023-02-16T08:10:26;97195.58;;;-5.19;81.99
43480;BME280;29067;35.492;-97.520;2023-02-16T08:13:00;97194.64;;;-5.03;83.22
43480;BME280;29067;35.492;-97.520;2023-02-16T08:15:29;97207.39;;;-5.39;83.40
43480;BME280;29067;35.492;-97.520;2023-02-16T08:17:57;97223.95;;;-5.52;83.07
43480;BME280;29067;35.492;-97.520;2023-02-16T08:20:25;97236.32;;;-5.11;80.85
43480;BME280;29067;35.492;-97.520;2023-02-16T08:22:53;97233.31;;;-5.30;79.18
43480;BME280;29067;35.492;-97.520;2023-02-16T08:25:22;97228.88;;;-5.92;83.66
43480;BME280;29067;35.492;-97.520;2023-02-16T08:27:50;97233.74;;;-4.80;84.75
43480;BME280;29067;35.492;-97.520;2023-02-16T08:30:19;97235.14;;;-4.98;85.85
43480;BME280;29067;35.492;-97.520;2023-02-16T08:32:47;97229.67;;;-5.00;80.57
43480;BME280;29067;35.492;-97.520;2023-02-16T08:35:15;97237.98;;;-6.37;87.19
43480;BME280;29067;35.492;-97.520;2023-02-16T08:37:43;97249.90;;;-5.63;83.20
43480;BME280;29067;35.492;-97.520;2023-02-16T08:40:12;97254.98;;;-5.93;90.22
43480;BME280;29067;35.492;-97.520;2023-02-16T08:42:40;97254.40;;;-5.62;89.14
43480;BME280;29067;35.492;-97.520;2023-02-16T08:45:08;97259.40;;;-5.67;93.12
43480;BME280;29067;35.492;-97.520;2023-02-16T08:47:37;97272.65;;;-5.10;84.57
43480;BME280;29067;35.492;-97.520;2023-02-16T08:50:06;97273.25;;;-5.28;85.76
43480;BME280;29067;35.492;-97.520;2023-02-16T08:52:34;97279.21;;;-5.73;89.98
43480;BME280;29067;35.492;-97.520;2023-02-16T08:55:02;97287.93;;;-5.43;85.78
43480;BME280;29067;35.492;-97.520;2023-02-16T08:57:33;97308.69;;;-5.06;86.70
43480;BME280;29067;35.492;-97.520;2023-02-16T09:00:01;97333.35;;;-5.43;85.88
43480;BME280;29067;35.492;-97.520;2023-02-16T09:02:29;97324.59;;;-5.49;80.81
43480;BME280;29067;35.492;-97.520;2023-02-16T09:04:57;97316.34;;;-5.67;84.95
43480;BME280;29067;35.492;-97.520;2023-02-16T09:07:25;97327.43;;;-5.33;81.52
43480;BME280;29067;35.492;-97.520;2023-02-16T09:09:54;97350.31;;;-5.50;82.02
43480;BME280;29067;35.492;-97.520;2023-02-16T09:12:22;97354.17;;;-5.45;82.30
43480;BME280;29067;35.492;-97.520;2023-02-16T09:14:50;97355.13;;;-4.87;80.41
43480;BME280;29067;35.492;-97.520;2023-02-16T09:17:21;97364.83;;;-5.23;77.66
43480;BME280;29067;35.492;-97.520;2023-02-16T09:19:49;97367.54;;;-5.84;76.65
43480;BME280;29067;35.492;-97.520;2023-02-16T09:22:18;97364.58;;;-5.91;82.87
43480;BME280;29067;35.492;-97.520;2023-02-16T09:24:46;97364.46;;;-5.76;81.62
43480;BME280;29067;35.492;-97.520;2023-02-16T09:27:14;97361.48;;;-6.01;82.54
43480;BME280;29067;35.492;-97.520;2023-02-16T09:29:42;97344.75;;;-5.28;79.77
43480;BME280;29067;35.492;-97.520;2023-02-16T09:32:10;97331.06;;;-5.73;81.52
43480;BME280;29067;35.492;-97.520;2023-02-16T09:34:38;97327.55;;;-6.14;82.76
43480;BME280;29067;35.492;-97.520;2023-02-16T09:37:06;97332.82;;;-5.68;82.29
43480;BME280;29067;35.492;-97.520;2023-02-16T09:39:34;97349.72;;;-6.16;85.91
43480;BME280;29067;35.492;-97.520;2023-02-16T09:42:10;97335.13;;;-6.06;84.75
43480;BME280;29067;35.492;-97.520;2023-02-16T09:44:49;97334.37;;;-5.35;80.38
43480;BME280;29067;35.492;-97.520;2023-02-16T09:47:23;97360.36;;;-5.69;79.58
43480;BME280;29067;35.492;-97.520;2023-02-16T09:49:52;97368.11;;;-5.83;83.46
43480;BME280;29067;35.492;-97.520;2023-02-16T09:52:25;97370.83;;;-6.37;79.20
43480;BME280;29067;35.492;-97.520;2023-02-16T09:54:57;97389.94;;;-6.13;81.18
43480;BME280;29067;35.492;-97.520;2023-02-16T09:57:47;97404.96;;;-6.44;76.35
43480;BME280;29067;35.492;-97.520;2023-02-16T10:00:30;97397.63;;;-5.84;75.79
43480;BME280;29067;35.492;-97.520;2023-02-16T10:03:09;97390.49;;;-5.57;75.08
43480;BME280;29067;35.492;-97.520;2023-02-16T10:05:44;97380.92;;;-6.51;77.05
43480;BME280;29067;35.492;-97.520;2023-02-16T10:08:23;97378.93;;;-6.42;78.70
43480;BME280;29067;35.492;-97.520;2023-02-16T10:10:59;97377.99;;;-5.67;77.44
43480;BME280;29067;35.492;-97.520;2023-02-16T10:13:36;97379.70;;;-4.53;72.12
43480;BME280;29067;35.492;-97.520;2023-02-16T10:16:13;97385.82;;;-5.91;71.49
43480;BME280;29067;35.492;-97.520;2023-02-16T10:18:47;97388.74;;;-5.84;73.55
43480;BME280;29067;35.492;-97.520;2023-02-16T10:21:21;97396.92;;;-5.93;72.80
43480;BME280;29067;35.492;-97.520;2023-02-16T10:23:55;97406.19;;;-6.70;75.43
43480;BME280;29067;35.492;-97.520;2023-02-16T10:26:29;97409.05;;;-6.70;74.45
43480;BME280;29067;35.492;-97.520;2023-02-16T10:29:06;97405.66;;;-6.44;75.49
43480;BME280;29067;35.492;-97.520;2023-02-16T10:31:40;97394.04;;;-6.30;75.53
43480;BME280;29067;35.492;-97.520;2023-02-16T10:34:17;97389.17;;;-6.42;74.54
43480;BME280;29067;35.492;-97.520;2023-02-16T10:36:57;97398.74;;;-5.27;71.38
43480;BME280;29067;35.492;-97.520;2023-02-16T10:39:36;97405.04;;;-5.39;70.55
43480;BME280;29067;35.492;-97.520;2023-02-16T10:42:15;97409.58;;;-7.71;76.67
43480;BME280;29067;35.492;-97.520;2023-02-16T10:44:47;97420.25;;;-7.07;76.68
43480;BME280;29067;35.492;-97.520;2023-02-16T10:47:29;97424.32;;;-5.80;73.96
43480;BME280;29067;35.492;-97.520;2023-02-16T10:49:59;97429.71;;;-6.19;73.73
43480;BME280;29067;35.492;-97.520;2023-02-16T10:52:31;97445.64;;;-6.93;76.09
43480;BME280;29067;35.492;-97.520;2023-02-16T10:55:01;97451.22;;;-5.94;71.03
43480;BME280;29067;35.492;-97.520;2023-02-16T10:57:31;97468.56;;;-6.80;72.83
43480;BME280;29067;35.492;-97.520;2023-02-16T11:00:04;97468.10;;;-6.78;73.63
43480;BME280;29067;35.492;-97.520;2023-02-16T11:02:37;97462.50;;;-6.05;70.60
43480;BME280;29067;35.492;-97.520;2023-02-16T11:05:29;97461.19;;;-6.55;69.51
43480;BME280;29067;35.492;-97.520;2023-02-16T11:07:59;97469.60;;;-7.67;73.40
43480;BME280;29067;35.492;-97.520;2023-02-16T11:10:39;97466.14;;;-6.80;70.35
43480;BME280;29067;35.492;-97.520;2023-02-16T11:13:21;97468.62;;;-7.34;72.01
43480;BME280;29067;35.492;-97.520;2023-02-16T11:15:53;97473.01;;;-5.85;69.96
43480;BME280;29067;35.492;-97.520;2023-02-16T11:18:31;97476.14;;;-7.42;69.64
43480;BME280;29067;35.492;-97.520;2023-02-16T11:21:03;97476.63;;;-7.92;72.40
43480;BME280;29067;35.492;-97.520;2023-02-16T11:23:33;97477.09;;;-7.12;71.05
43480;BME280;29067;35.492;-97.520;2023-02-16T11:26:04;97478.36;;;-6.06;67.68
43480;BME280;29067;35.492;-97.520;2023-02-16T11:28:35;97484.18;;;-7.26;67.34
43480;BME280;29067;35.492;-97.520;2023-02-16T11:31:10;97494.01;;;-7.21;68.85
43480;BME280;29067;35.492;-97.520;2023-02-16T11:33:40;97493.76;;;-7.40;68.73
43480;BME280;29067;35.492;-97.520;2023-02-16T11:36:31;97507.87;;;-7.05;69.01
43480;BME280;29067;35.492;-97.520;2023-02-16T11:39:02;97504.15;;;-7.23;68.60
43480;BME280;29067;35.492;-97.520;2023-02-16T11:41:32;97509.96;;;-6.63;67.63
43480;BME280;29067;35.492;-97.520;2023-02-16T11:44:02;97519.10;;;-7.10;68.39
43480;BME280;29067;35.492;-97.520;2023-02-16T11:46:38;97519.24;;;-7.19;69.09
43480;BME280;29067;35.492;-97.520;2023-02-16T11:49:30;97514.54;;;-6.42;67.09
43480;BME280;29067;35.492;-97.520;2023-02-16T11:51:59;97502.88;;;-6.67;66.03
43480;BME280;29067;35.492;-97.520;2023-02-16T11:54:26;97516.34;;;-7.89;69.18
43480;BME280;29067;35.492;-97.520;2023-02-16T11:57:21;97518.32;;;-7.00;68.33
43480;BME280;29067;35.492;-97.520;2023-02-16T11:59:49;97520.38;;;-6.68;66.52
43480;BME280;29067;35.492;-97.520;2023-02-16T12:03:25;97534.02;;;-6.94;64.44
43480;BME280;29067;35.492;-97.520;2023-02-16T12:06:09;97534.49;;;-6.57;62.90
43480;BME280;29067;35.492;-97.520;2023-02-16T12:08:52;97541.93;;;-6.76;62.81
43480;BME280;29067;35.492;-97.520;2023-02-16T12:11:33;97536.80;;;-6.68;61.19
43480;BME280;29067;35.492;-97.520;2023-02-16T12:14:17;97547.91;;;-8.67;67.12
43480;BME280;29067;35.492;-97.520;2023-02-16T12:16:53;97551.00;;;-7.25;64.77
43480;BME280;29067;35.492;-97.520;2023-02-16T12:19:35;97561.98;;;-7.45;62.46
43480;BME280;29067;35.492;-97.520;2023-02-16T12:22:14;97561.17;;;-6.69;59.27
43480;BME280;29067;35.492;-97.520;2023-02-16T12:24:54;97568.28;;;-7.47;61.68
43480;BME280;29067;35.492;-97.520;2023-02-16T12:27:32;97565.42;;;-7.55;61.91
43480;BME280;29067;35.492;-97.520;2023-02-16T12:30:11;97566.89;;;-8.08;62.66
43480;BME280;29067;35.492;-97.520;2023-02-16T12:32:53;97566.27;;;-8.33;63.95
43480;BME280;29067;35.492;-97.520;2023-02-16T12:35:44;97564.18;;;-8.49;64.96
43480;BME280;29067;35.492;-97.520;2023-02-16T12:38:22;97573.69;;;-8.53;64.41
43480;BME280;29067;35.492;-97.520;2023-02-16T12:41:07;97572.65;;;-7.50;64.14
43480;BME280;29067;35.492;-97.520;2023-02-16T12:43:41;97576.01;;;-9.22;67.88
43480;BME280;29067;35.492;-97.520;2023-02-16T12:46:15;97578.40;;;-8.10;66.09
43480;BME280;29067;35.492;-97.520;2023-02-16T12:48:51;97579.82;;;-8.45;66.60
43480;BME280;29067;35.492;-97.520;2023-02-16T12:51:25;97581.75;;;-7.22;65.27
43480;BME280;29067;35.492;-97.520;2023-02-16T12:53:58;97575.82;;;-8.43;66.93
43480;BME280;29067;35.492;-97.520;2023-02-16T12:56:31;97581.87;;;-8.49;65.82
43480;BME280;29067;35.492;-97.520;2023-02-16T12:59:12;97590.78;;;-8.38;66.26
43480;BME280;29067;35.492;-97.520;2023-02-16T13:01:43;97594.49;;;-7.71;65.03
43480;BME280;29067;35.492;-97.520;2023-02-16T13:04:20;97599.79;;;-7.18;62.98
43480;BME280;29067;35.492;-97.520;2023-02-16T13:06:55;97607.84;;;-7.56;61.83